sensor_id;sensor_type;location;lat;lon;timestamp;temperature;humidity
15983;DHT22;14442;50.196;8.096;2023-04-09T00:00:08;24.60;40.40
15983;DHT22;14442;50.196;8.096;2023-04-09T00:02:37;24.60;40.40
15983;DHT22;14442;50.196;8.096;2023-04-09T00:05:04;24.60;40.30
15983;DHT22;14442;50.196;8.096;2023-04-09T00:07:31;24.60;40.30
15983;DHT22;14442;50.196;8.096;2023-04-09T00:09:58;24.60;40.40
15983;DHT22;14442;50.196;8.096;2023-04-09T00:12:25;24.60;40.30
15983;DHT22;14442;50.196;8.096;2023-04-09T00:14:51;24.60;40.30
15983;DHT22;14442;50.196;8.096;2023-04-09T00:17:18;24.50;40.20
15983;DHT22;14442;50.196;8.096;2023-04-09T00:19:47;24.50;40.20
15983;DHT22;14442;50.196;8.096;2023-04-09T00:22:13;24.50;40.20
15983;DHT22;14442;50.196;8.096;2023-04-09T00:24:40;24.60;40.30
15983;DHT22;14442;50.196;8.096;2023-04-09T00:27:07;24.50;40.20
15983;DHT22;14442;50.196;8.096;2023-04-09T00:29:33;24.50;40.20
15983;DHT22;14442;50.196;8.096;2023-04-09T00:32:00;24.50;40.20
15983;DHT22;14442;50.196;8.096;2023-04-09T00:34:27;24.50;40.20
15983;DHT22;14442;50.196;8.096;2023-04-09T00:36:55;24.60;40.30
15983;DHT22;14442;50.196;8.096;2023-04-09T00:39:21;24.50;40.20
15983;DHT22;14442;50.196;8.096;2023-04-09T00:41:48;24.50;40.20
15983;DHT22;14442;50.196;8.096;2023-04-09T00:44:15;24.50;40.10
15983;DHT22;14442;50.196;8.096;2023-04-09T00:46:41;24.50;40.10
15983;DHT22;14442;50.196;8.096;2023-04-09T00:49:08;24.50;40.00
15983;DHT22;14442;50.196;8.096;2023-04-09T00:51:35;24.50;40.10
15983;DHT22;14442;50.196;8.096;2023-04-09T00:54:04;24.50;40.10
15983;DHT22;14442;50.196;8.096;2023-04-09T00:56:31;24.50;40.10
15983;DHT22;14442;50.196;8.096;2023-04-09T00:58:58;24.50;40.10
15983;DHT22;14442;50.196;8.096;2023-04-09T01:01:25;24.50;40.10
15983;DHT22;14442;50.196;8.096;2023-04-09T01:03:51;24.50;40.00
15983;DHT22;14442;50.196;8.096;2023-04-09T01:06:24;24.50;40.00
15983;DHT22;14442;50.196;8.096;2023-04-09T01:08:58;24.50;40.10
15983;DHT22;14442;50.196;8.096;2023-04-09T01:11:34;24.50;40.00
15983;DHT22;14442;50.196;8.096;2023-04-09T01:14:07;24.50;40.10
15983;DHT22;14442;50.196;8.096;2023-04-09T01:16:41;24.50;40.10
15983;DHT22;14442;50.196;8.096;2023-04-09T01:19:23;24.50;40.10
15983;DHT22;14442;50.196;8.096;2023-04-09T01:21:55;24.40;40.00
15983;DHT22;14442;50.196;8.096;2023-04-09T01:24:33;24.40;40.00
15983;DHT22;14442;50.196;8.096;2023-04-09T01:27:05;24.40;40.00
15983;DHT22;14442;50.196;8.096;2023-04-09T01:29:35;24.50;40.10
15983;DHT22;14442;50.196;8.096;2023-04-09T01:32:06;24.50;40.10
15983;DHT22;14442;50.196;8.096;2023-04-09T01:34:34;24.40;40.00
15983;DHT22;14442;50.196;8.096;2023-04-09T01:37:03;24.40;40.00
15983;DHT22;14442;50.196;8.096;2023-04-09T01:39:30;24.50;40.10
15983;DHT22;14442;50.196;8.096;2023-04-09T01:41:57;24.40;40.00
15983;DHT22;14442;50.196;8.096;2023-04-09T01:44:26;24.40;40.00
15983;DHT22;14442;50.196;8.096;2023-04-09T01:46:55;24.40;40.00
15983;DHT22;14442;50.196;8.096;2023-04-09T01:49:23;24.40;40.00
15983;DHT22;14442;50.196;8.096;2023-04-09T01:51:50;24.40;40.00
15983;DHT22;14442;50.196;8.096;2023-04-09T01:54:17;24.40;40.10
15983;DHT22;14442;50.196;8.096;2023-04-09T01:56:45;24.30;40.10
15983;DHT22;14442;50.196;8.096;2023-04-09T01:59:12;24.30;40.10
15983;DHT22;14442;50.196;8.096;2023-04-09T02:01:44;24.30;40.00
15983;DHT22;14442;50.196;8.096;2023-04-09T02:04:17;24.30;40.00
15983;DHT22;14442;50.196;8.096;2023-04-09T02:06:49;24.30;40.10
15983;DHT22;14442;50.196;8.096;2023-04-09T02:09:20;24.30;40.00
15983;DHT22;14442;50.196;8.096;2023-04-09T02:11:47;24.30;40.10
15983;DHT22;14442;50.196;8.096;2023-04-09T02:14:15;24.30;40.10
15983;DHT22;14442;50.196;8.096;2023-04-09T02:16:43;24.30;40.10
15983;DHT22;14442;50.196;8.096;2023-04-09T02:19:10;24.30;40.10
15983;DHT22;14442;50.196;8.096;2023-04-09T02:21:38;24.30;40.10
15983;DHT22;14442;50.196;8.096;2023-04-09T02:24:05;24.30;40.10
15983;DHT22;14442;50.196;8.096;2023-04-09T02:26:32;24.30;40.10
15983;DHT22;14442;50.196;8.096;2023-04-09T02:28:58;24.30;40.10
15983;DHT22;14442;50.196;8.096;2023-04-09T02:31:25;24.20;40.10
15983;DHT22;14442;50.196;8.096;2023-04-09T02:33:52;24.10;40.00
15983;DHT22;14442;50.196;8.096;2023-04-09T02:36:18;24.20;40.10
15983;DHT22;14442;50.196;8.096;2023-04-09T02:38:47;24.20;40.10
15983;DHT22;14442;50.196;8.096;2023-04-09T02:41:13;24.20;40.10
15983;DHT22;14442;50.196;8.096;2023-04-09T02:43:40;24.10;40.10
15983;DHT22;14442;50.196;8.096;2023-04-09T02:46:07;24.10;40.00
15983;DHT22;14442;50.196;8.096;2023-04-09T02:48:33;24.20;40.10
15983;DHT22;14442;50.196;8.096;2023-04-09T02:51:00;24.10;40.10
15983;DHT22;14442;50.196;8.096;2023-04-09T02:53:27;24.10;40.10
15983;DHT22;14442;50.196;8.096;2023-04-09T02:55:55;24.10;40.10
15983;DHT22;14442;50.196;8.096;2023-04-09T02:58:21;24.10;40.10
15983;DHT22;14442;50.196;8.096;2023-04-09T03:00:48;24.10;40.10
15983;DHT22;14442;50.196;8.096;2023-04-09T03:03:15;24.10;40.10
15983;DHT22;14442;50.196;8.096;2023-04-09T03:05:41;24.10;40.20
15983;DHT22;14442;50.196;8.096;2023-04-09T03:08:08;24.10;40.20
15983;DHT22;14442;50.196;8.096;2023-04-09T03:10:35;24.00;40.00
15983;DHT22;14442;50.196;8.096;2023-04-09T03:13:03;24.00;40.10
15983;DHT22;14442;50.196;8.096;2023-04-09T03:15:30;24.00;40.10
15983;DHT22;14442;50.196;8.096;2023-04-09T03:17:56;24.00;40.10
15983;DHT22;14442;50.196;8.096;2023-04-09T03:20:23;24.00;40.20
15983;DHT22;14442;50.196;8.096;2023-04-09T03:22:50;24.00;40.10
15983;DHT22;14442;50.196;8.096;2023-04-09T03:25:16;23.90;40.10
15983;DHT22;14442;50.196;8.096;2023-04-09T03:27:45;23.90;40.10
15983;DHT22;14442;50.196;8.096;2023-04-09T03:30:13;23.90;40.10
15983;DHT22;14442;50.196;8.096;2023-04-09T03:32:40;23.90;40.10
15983;DHT22;14442;50.196;8.096;2023-04-09T03:35:07;23.90;40.10
15983;DHT22;14442;50.196;8.096;2023-04-09T03:37:33;23.90;40.10
15983;DHT22;14442;50.196;8.096;2023-04-09T03:40:00;23.90;40.10
15983;DHT22;14442;50.196;8.096;2023-04-09T03:42:27;23.90;40.10
15983;DHT22;14442;50.196;8.096;2023-04-09T03:44:54;23.80;40.10
15983;DHT22;14442;50.196;8.096;2023-04-09T03:47:22;23.90;40.20
15983;DHT22;14442;50.196;8.096;2023-04-09T03:49:48;23.80;40.00
15983;DHT22;14442;50.196;8.096;2023-04-09T03:52:15;23.80;40.10
15983;DHT22;14442;50.196;8.096;2023-04-09T03:54:42;23.80;40.10
15983;DHT22;14442;50.196;8.096;2023-04-09T03:57:08;23.70;40.00
15983;DHT22;14442;50.196;8.096;2023-04-09T03:59:35;23.80;40.10
15983;DHT22;14442;50.196;8.096;2023-04-09T04:02:02;23.70;40.00
15983;DHT22;14442;50.196;8.096;2023-04-09T04:04:30;23.70;40.00
15983;DHT22;14442;50.196;8.096;2023-04-09T04:06:56;23.80;40.10
15983;DHT22;14442;50.196;8.096;2023-04-09T04:09:23;23.70;40.00
15983;DHT22;14442;50.196;8.096;2023-04-09T04:11:50;23.70;40.00
15983;DHT22;14442;50.196;8.096;2023-04-09T04:14:16;23.70;40.00
15983;DHT22;14442;50.196;8.096;2023-04-09T04:16:43;23.70;40.00
15983;DHT22;14442;50.196;8.096;2023-04-09T04:19:10;23.60;40.00
15983;DHT22;14442;50.196;8.096;2023-04-09T04:21:38;23.60;40.10
15983;DHT22;14442;50.196;8.096;2023-04-09T04:24:05;23.60;40.20
15983;DHT22;14442;50.196;8.096;2023-04-09T04:26:32;23.50;40.10
15983;DHT22;14442;50.196;8.096;2023-04-09T04:28:58;23.50;40.10
15983;DHT22;14442;50.196;8.096;2023-04-09T04:31:25;23.50;40.10
15983;DHT22;14442;50.196;8.096;2023-04-09T04:33:52;23.60;40.10
15983;DHT22;14442;50.196;8.096;2023-04-09T04:36:18;23.50;40.00
15983;DHT22;14442;50.196;8.096;2023-04-09T04:38:46;23.60;40.00
15983;DHT22;14442;50.196;8.096;2023-04-09T04:41:13;23.60;39.90
15983;DHT22;14442;50.196;8.096;2023-04-09T04:43:40;23.60;39.80
15983;DHT22;14442;50.196;8.096;2023-04-09T04:46:06;23.60;39.70
15983;DHT22;14442;50.196;8.096;2023-04-09T04:48:33;23.70;39.80
15983;DHT22;14442;50.196;8.096;2023-04-09T04:51:00;23.60;39.70
15983;DHT22;14442;50.196;8.096;2023-04-09T04:53:27;23.70;39.70
15983;DHT22;14442;50.196;8.096;2023-04-09T04:55:55;23.70;39.70
15983;DHT22;14442;50.196;8.096;2023-04-09T04:58:22;23.70;39.60
15983;DHT22;14442;50.196;8.096;2023-04-09T05:00:48;23.70;39.60
15983;DHT22;14442;50.196;8.096;2023-04-09T05:03:15;23.70;39.50
15983;DHT22;14442;50.196;8.096;2023-04-09T05:05:42;23.70;39.50
15983;DHT22;14442;50.196;8.096;2023-04-09T05:08:09;23.70;39.50
15983;DHT22;14442;50.196;8.096;2023-04-09T05:10:38;23.70;39.50
15983;DHT22;14442;50.196;8.096;2023-04-09T05:13:07;23.70;39.50
15983;DHT22;14442;50.196;8.096;2023-04-09T05:15:37;23.70;39.50
15983;DHT22;14442;50.196;8.096;2023-04-09T05:18:03;23.70;39.40
15983;DHT22;14442;50.196;8.096;2023-04-09T05:20:31;23.70;39.40
15983;DHT22;14442;50.196;8.096;2023-04-09T05:22:57;23.80;39.40
15983;DHT22;14442;50.196;8.096;2023-04-09T05:25:24;23.80;39.40
15983;DHT22;14442;50.196;8.096;2023-04-09T05:27:51;23.80;39.40
15983;DHT22;14442;50.196;8.096;2023-04-09T05:30:19;23.90;39.50
15983;DHT22;14442;50.196;8.096;2023-04-09T05:32:46;23.80;39.30
15983;DHT22;14442;50.196;8.096;2023-04-09T05:35:12;23.80;39.30
15983;DHT22;14442;50.196;8.096;2023-04-09T05:37:39;23.90;39.30
15983;DHT22;14442;50.196;8.096;2023-04-09T05:40:07;23.80;39.20
15983;DHT22;14442;50.196;8.096;2023-04-09T05:42:33;23.90;39.30
15983;DHT22;14442;50.196;8.096;2023-04-09T05:45:00;23.90;39.30
15983;DHT22;14442;50.196;8.096;2023-04-09T05:47:28;23.90;39.30
15983;DHT22;14442;50.196;8.096;2023-04-09T05:49:55;23.90;39.20
15983;DHT22;14442;50.196;8.096;2023-04-09T05:52:21;23.90;39.30
15983;DHT22;14442;50.196;8.096;2023-04-09T05:54:48;23.90;39.20
15983;DHT22;14442;50.196;8.096;2023-04-09T05:57:15;23.90;39.30
15983;DHT22;14442;50.196;8.096;2023-04-09T05:59:41;23.90;39.20
15983;DHT22;14442;50.196;8.096;2023-04-09T06:02:08;23.90;39.20
15983;DHT22;14442;50.196;8.096;2023-04-09T06:04:36;23.90;39.20
15983;DHT22;14442;50.196;8.096;2023-04-09T06:07:03;23.90;39.10
15983;DHT22;14442;50.196;8.096;2023-04-09T06:09:30;23.90;39.10
15983;DHT22;14442;50.196;8.096;2023-04-09T06:11:56;23.90;39.10
15983;DHT22;14442;50.196;8.096;2023-04-09T06:14:23;23.90;39.10
15983;DHT22;14442;50.196;8.096;2023-04-09T06:16:50;23.90;39.10
15983;DHT22;14442;50.196;8.096;2023-04-09T06:19:16;23.90;39.10
15983;DHT22;14442;50.196;8.096;2023-04-09T06:21:44;23.90;39.10
15983;DHT22;14442;50.196;8.096;2023-04-09T06:24:11;23.90;39.10
15983;DHT22;14442;50.196;8.096;2023-04-09T06:26:37;23.90;39.20
15983;DHT22;14442;50.196;8.096;2023-04-09T06:29:04;23.90;39.10
15983;DHT22;14442;50.196;8.096;2023-04-09T06:31:31;23.90;39.10
15983;DHT22;14442;50.196;8.096;2023-04-09T06:33:58;23.90;39.10
15983;DHT22;14442;50.196;8.096;2023-04-09T06:36:24;23.90;39.10
15983;DHT22;14442;50.196;8.096;2023-04-09T06:38:53;23.90;39.10
15983;DHT22;14442;50.196;8.096;2023-04-09T06:41:20;23.90;39.10
15983;DHT22;14442;50.196;8.096;2023-04-09T06:43:47;23.90;39.00
15983;DHT22;14442;50.196;8.096;2023-04-09T06:46:14;23.90;39.00
15983;DHT22;14442;50.196;8.096;2023-04-09T06:48:42;23.90;39.10
15983;DHT22;14442;50.196;8.096;2023-04-09T06:51:09;23.90;39.00
15983;DHT22;14442;50.196;8.096;2023-04-09T06:53:37;23.90;39.00
15983;DHT22;14442;50.196;8.096;2023-04-09T06:56:05;23.90;39.10
15983;DHT22;14442;50.196;8.096;2023-04-09T06:58:32;23.90;39.10
15983;DHT22;14442;50.196;8.096;2023-04-09T07:00:59;23.80;39.20
15983;DHT22;14442;50.196;8.096;2023-04-09T07:03:26;23.80;39.20
15983;DHT22;14442;50.196;8.096;2023-04-09T07:05:53;23.70;39.20
15983;DHT22;14442;50.196;8.096;2023-04-09T07:08:20;23.70;39.20
15983;DHT22;14442;50.196;8.096;2023-04-09T07:10:48;23.80;39.30
15983;DHT22;14442;50.196;8.096;2023-04-09T07:13:16;23.70;39.20
15983;DHT22;14442;50.196;8.096;2023-04-09T07:15:42;23.80;39.20
15983;DHT22;14442;50.196;8.096;2023-04-09T07:18:09;23.80;39.10
15983;DHT22;14442;50.196;8.096;2023-04-09T07:20:36;23.90;39.20
15983;DHT22;14442;50.196;8.096;2023-04-09T07:23:03;23.80;39.10
15983;DHT22;14442;50.196;8.096;2023-04-09T07:25:29;23.90;39.10
15983;DHT22;14442;50.196;8.096;2023-04-09T07:27:56;23.90;39.30
15983;DHT22;14442;50.196;8.096;2023-04-09T07:30:24;23.90;39.20
15983;DHT22;14442;50.196;8.096;2023-04-09T07:32:51;23.90;39.20
15983;DHT22;14442;50.196;8.096;2023-04-09T07:35:18;23.80;39.20
15983;DHT22;14442;50.196;8.096;2023-04-09T07:37:45;23.90;39.30
15983;DHT22;14442;50.196;8.096;2023-04-09T07:40:12;23.90;39.20
15983;DHT22;14442;50.196;8.096;2023-04-09T07:42:39;23.80;39.20
15983;DHT22;14442;50.196;8.096;2023-04-09T07:45:07;23.80;39.20
15983;DHT22;14442;50.196;8.096;2023-04-09T07:47:35;23.80;39.20
15983;DHT22;14442;50.196;8.096;2023-04-09T07:50:02;23.80;39.20
15983;DHT22;14442;50.196;8.096;2023-04-09T07:52:29;23.80;39.20
15983;DHT22;14442;50.196;8.096;2023-04-09T07:54:55;23.80;39.20
15983;DHT22;14442;50.196;8.096;2023-04-09T07:57:22;23.80;39.20
15983;DHT22;14442;50.196;8.096;2023-04-09T07:59:49;23.80;39.30
15983;DHT22;14442;50.196;8.096;2023-04-09T08:02:16;23.80;39.30
15983;DHT22;14442;50.196;8.096;2023-04-09T08:04:44;23.80;39.20
15983;DHT22;14442;50.196;8.096;2023-04-09T08:07:11;23.90;39.30
15983;DHT22;14442;50.196;8.096;2023-04-09T08:09:37;23.90;39.20
15983;DHT22;14442;50.196;8.096;2023-04-09T08:12:04;24.00;39.20
15983;DHT22;14442;50.196;8.096;2023-04-09T08:14:31;24.00;39.30
15983;DHT22;14442;50.196;8.096;2023-04-09T08:16:59;24.00;39.30
15983;DHT22;14442;50.196;8.096;2023-04-09T08:19:26;24.10;39.70
15983;DHT22;14442;50.196;8.096;2023-04-09T08:21:54;24.00;39.90
15983;DHT22;14442;50.196;8.096;2023-04-09T08:24:21;24.00;40.00
15983;DHT22;14442;50.196;8.096;2023-04-09T08:26:47;24.10;40.40
15983;DHT22;14442;50.196;8.096;2023-04-09T08:29:14;24.10;40.50
15983;DHT22;14442;50.196;8.096;2023-04-09T08:31:41;24.10;40.60
15983;DHT22;14442;50.196;8.096;2023-04-09T08:34:08;24.10;40.60
15983;DHT22;14442;50.196;8.096;2023-04-09T08:36:35;24.20;40.70
15983;DHT22;14442;50.196;8.096;2023-04-09T08:39:03;24.20;40.80
15983;DHT22;14442;50.196;8.096;2023-04-09T08:41:29;24.30;40.80
15983;DHT22;14442;50.196;8.096;2023-04-09T08:43:57;24.30;40.80
15983;DHT22;14442;50.196;8.096;2023-04-09T08:46:24;24.30;40.80
15983;DHT22;14442;50.196;8.096;2023-04-09T08:48:51;24.30;40.60
15983;DHT22;14442;50.196;8.096;2023-04-09T08:51:19;24.30;40.50
15983;DHT22;14442;50.196;8.096;2023-04-09T08:53:47;24.30;40.70
15983;DHT22;14442;50.196;8.096;2023-04-09T08:56:16;24.30;40.80
15983;DHT22;14442;50.196;8.096;2023-04-09T08:58:44;24.40;40.90
15983;DHT22;14442;50.196;8.096;2023-04-09T09:01:20;24.30;41.00
15983;DHT22;14442;50.196;8.096;2023-04-09T09:03:55;24.30;41.00
15983;DHT22;14442;50.196;8.096;2023-04-09T09:06:23;24.30;40.80
15983;DHT22;14442;50.196;8.096;2023-04-09T09:09:00;24.30;40.80
15983;DHT22;14442;50.196;8.096;2023-04-09T09:11:29;24.40;40.90
15983;DHT22;14442;50.196;8.096;2023-04-09T09:14:00;24.30;40.90
15983;DHT22;14442;50.196;8.096;2023-04-09T09:16:27;24.30;40.80
15983;DHT22;14442;50.196;8.096;2023-04-09T09:18:54;24.40;41.00
15983;DHT22;14442;50.196;8.096;2023-04-09T09:21:21;24.40;41.30
15983;DHT22;14442;50.196;8.096;2023-04-09T09:23:48;24.40;41.10
15983;DHT22;14442;50.196;8.096;2023-04-09T09:26:16;24.40;41.20
15983;DHT22;14442;50.196;8.096;2023-04-09T09:28:45;24.40;41.20
15983;DHT22;14442;50.196;8.096;2023-04-09T09:31:13;24.40;41.00
15983;DHT22;14442;50.196;8.096;2023-04-09T09:33:40;24.40;41.00
15983;DHT22;14442;50.196;8.096;2023-04-09T09:36:07;24.40;41.20
15983;DHT22;14442;50.196;8.096;2023-04-09T09:38:50;24.40;41.30
15983;DHT22;14442;50.196;8.096;2023-04-09T09:41:17;24.50;41.20
15983;DHT22;14442;50.196;8.096;2023-04-09T09:43:46;24.50;41.20
15983;DHT22;14442;50.196;8.096;2023-04-09T09:46:14;24.50;41.20
15983;DHT22;14442;50.196;8.096;2023-04-09T09:48:41;24.50;41.20
15983;DHT22;14442;50.196;8.096;2023-04-09T09:51:10;24.40;41.10
15983;DHT22;14442;50.196;8.096;2023-04-09T09:53:38;24.40;41.10
15983;DHT22;14442;50.196;8.096;2023-04-09T09:56:06;24.40;41.10
15983;DHT22;14442;50.196;8.096;2023-04-09T09:58:38;24.40;41.10
15983;DHT22;14442;50.196;8.096;2023-04-09T10:01:11;24.40;41.20
15983;DHT22;14442;50.196;8.096;2023-04-09T10:03:39;24.40;41.30
15983;DHT22;14442;50.196;8.096;2023-04-09T10:06:07;24.40;41.20
15983;DHT22;14442;50.196;8.096;2023-04-09T10:08:36;24.40;41.30
15983;DHT22;14442;50.196;8.096;2023-04-09T10:11:05;24.40;41.30
15983;DHT22;14442;50.196;8.096;2023-04-09T10:13:34;24.40;41.40
15983;DHT22;14442;50.196;8.096;2023-04-09T10:16:03;24.50;41.60
15983;DHT22;14442;50.196;8.096;2023-04-09T10:18:32;24.50;41.40
15983;DHT22;14442;50.196;8.096;2023-04-09T10:21:04;24.40;41.30
15983;DHT22;14442;50.196;8.096;2023-04-09T10:23:37;24.40;41.20
15983;DHT22;14442;50.196;8.096;2023-04-09T10:26:05;24.50;41.30
15983;DHT22;14442;50.196;8.096;2023-04-09T10:28:31;24.50;41.40
15983;DHT22;14442;50.196;8.096;2023-04-09T10:30:58;24.40;41.30
15983;DHT22;14442;50.196;8.096;2023-04-09T10:33:26;24.40;41.30
15983;DHT22;14442;50.196;8.096;2023-04-09T10:35:58;24.40;41.60
15983;DHT22;14442;50.196;8.096;2023-04-09T10:38:35;24.40;41.40
15983;DHT22;14442;50.196;8.096;2023-04-09T10:41:07;24.30;41.20
15983;DHT22;14442;50.196;8.096;2023-04-09T10:43:35;24.30;41.10
15983;DHT22;14442;50.196;8.096;2023-04-09T10:46:04;24.40;41.30
15983;DHT22;14442;50.196;8.096;2023-04-09T10:48:32;24.40;41.40
15983;DHT22;14442;50.196;8.096;2023-04-09T10:51:01;24.40;41.50
15983;DHT22;14442;50.196;8.096;2023-04-09T10:53:31;24.40;41.50
15983;DHT22;14442;50.196;8.096;2023-04-09T10:55:58;24.40;41.50
15983;DHT22;14442;50.196;8.096;2023-04-09T10:58:25;24.40;41.50
15983;DHT22;14442;50.196;8.096;2023-04-09T11:00:53;24.40;41.70
15983;DHT22;14442;50.196;8.096;2023-04-09T11:03:22;24.40;41.70
15983;DHT22;14442;50.196;8.096;2023-04-09T11:05:52;24.40;41.70
15983;DHT22;14442;50.196;8.096;2023-04-09T11:08:21;24.40;41.80
15983;DHT22;14442;50.196;8.096;2023-04-09T11:10:48;24.40;41.90
15983;DHT22;14442;50.196;8.096;2023-04-09T11:13:15;24.40;42.00
15983;DHT22;14442;50.196;8.096;2023-04-09T11:15:43;24.40;42.10
15983;DHT22;14442;50.196;8.096;2023-04-09T11:18:13;24.40;42.00
15983;DHT22;14442;50.196;8.096;2023-04-09T11:20:40;24.30;42.10
15983;DHT22;14442;50.196;8.096;2023-04-09T11:23:07;24.30;42.20
15983;DHT22;14442;50.196;8.096;2023-04-09T11:25:35;24.30;42.10
15983;DHT22;14442;50.196;8.096;2023-04-09T11:28:02;24.30;42.30
15983;DHT22;14442;50.196;8.096;2023-04-09T11:30:30;24.30;42.20
15983;DHT22;14442;50.196;8.096;2023-04-09T11:32:59;24.30;42.10
15983;DHT22;14442;50.196;8.096;2023-04-09T11:35:26;24.30;42.30
15983;DHT22;14442;50.196;8.096;2023-04-09T11:37:52;24.40;42.40
15983;DHT22;14442;50.196;8.096;2023-04-09T11:40:20;24.30;42.20
15983;DHT22;14442;50.196;8.096;2023-04-09T11:42:50;24.30;42.30
15983;DHT22;14442;50.196;8.096;2023-04-09T11:45:18;24.30;42.30
15983;DHT22;14442;50.196;8.096;2023-04-09T11:47:45;24.30;42.40
15983;DHT22;14442;50.196;8.096;2023-04-09T11:50:13;24.30;42.40
15983;DHT22;14442;50.196;8.096;2023-04-09T11:52:40;24.30;42.40
15983;DHT22;14442;50.196;8.096;2023-04-09T11:55:08;24.30;42.40
15983;DHT22;14442;50.196;8.096;2023-04-09T11:57:45;24.30;42.30
15983;DHT22;14442;50.196;8.096;2023-04-09T12:00:15;24.30;42.60
15983;DHT22;14442;50.196;8.096;2023-04-09T12:02:45;24.30;42.40
15983;DHT22;14442;50.196;8.096;2023-04-09T12:05:20;24.30;42.30
15983;DHT22;14442;50.196;8.096;2023-04-09T12:07:47;24.30;42.40
15983;DHT22;14442;50.196;8.096;2023-04-09T12:10:13;24.30;42.30
15983;DHT22;14442;50.196;8.096;2023-04-09T12:12:41;24.30;42.30
15983;DHT22;14442;50.196;8.096;2023-04-09T12:15:18;24.30;42.30
15983;DHT22;14442;50.196;8.096;2023-04-09T12:17:49;24.30;42.20
15983;DHT22;14442;50.196;8.096;2023-04-09T12:20:33;24.30;42.30
15983;DHT22;14442;50.196;8.096;2023-04-09T12:23:01;24.30;42.30
15983;DHT22;14442;50.196;8.096;2023-04-09T12:25:29;24.30;42.20
15983;DHT22;14442;50.196;8.096;2023-04-09T12:27:56;24.30;42.00
15983;DHT22;14442;50.196;8.096;2023-04-09T12:30:25;24.30;41.90
15983;DHT22;14442;50.196;8.096;2023-04-09T12:32:52;24.20;41.70
15983;DHT22;14442;50.196;8.096;2023-04-09T12:35:19;24.20;41.60
15983;DHT22;14442;50.196;8.096;2023-04-09T12:37:46;24.20;41.50
15983;DHT22;14442;50.196;8.096;2023-04-09T12:40:13;24.20;41.40
15983;DHT22;14442;50.196;8.096;2023-04-09T12:42:39;24.30;41.30
15983;DHT22;14442;50.196;8.096;2023-04-09T12:45:07;24.30;41.20
15983;DHT22;14442;50.196;8.096;2023-04-09T12:47:36;24.30;41.10
15983;DHT22;14442;50.196;8.096;2023-04-09T12:50:05;24.30;41.20
15983;DHT22;14442;50.196;8.096;2023-04-09T12:52:32;24.50;41.90
15983;DHT22;14442;50.196;8.096;2023-04-09T12:54:59;24.40;41.70
15983;DHT22;14442;50.196;8.096;2023-04-09T12:57:25;24.50;42.10
15983;DHT22;14442;50.196;8.096;2023-04-09T12:59:52;24.50;42.30
15983;DHT22;14442;50.196;8.096;2023-04-09T13:02:20;24.50;42.40
15983;DHT22;14442;50.196;8.096;2023-04-09T13:04:48;24.50;42.40
15983;DHT22;14442;50.196;8.096;2023-04-09T13:07:15;24.50;42.60
15983;DHT22;14442;50.196;8.096;2023-04-09T13:09:44;24.50;42.60
15983;DHT22;14442;50.196;8.096;2023-04-09T13:12:10;24.40;42.40
15983;DHT22;14442;50.196;8.096;2023-04-09T13:14:38;24.30;42.50
15983;DHT22;14442;50.196;8.096;2023-04-09T13:17:04;24.20;42.50
15983;DHT22;14442;50.196;8.096;2023-04-09T13:19:31;24.10;42.30
15983;DHT22;14442;50.196;8.096;2023-04-09T13:21:59;24.00;41.90
15983;DHT22;14442;50.196;8.096;2023-04-09T13:24:26;23.90;41.60
15983;DHT22;14442;50.196;8.096;2023-04-09T13:26:53;23.90;41.40
15983;DHT22;14442;50.196;8.096;2023-04-09T13:29:20;23.90;41.10
15983;DHT22;14442;50.196;8.096;2023-04-09T13:31:47;23.70;39.50
15983;DHT22;14442;50.196;8.096;2023-04-09T13:34:14;23.40;39.70
15983;DHT22;14442;50.196;8.096;2023-04-09T13:36:40;23.00;39.40
15983;DHT22;14442;50.196;8.096;2023-04-09T13:39:08;22.90;39.80
15983;DHT22;14442;50.196;8.096;2023-04-09T13:41:35;22.70;39.10
15983;DHT22;14442;50.196;8.096;2023-04-09T13:44:03;22.60;38.50
15983;DHT22;14442;50.196;8.096;2023-04-09T13:46:29;22.60;38.70
15983;DHT22;14442;50.196;8.096;2023-04-09T13:48:56;22.60;38.60
15983;DHT22;14442;50.196;8.096;2023-04-09T13:51:24;22.70;38.60
15983;DHT22;14442;50.196;8.096;2023-04-09T13:53:50;22.60;38.60
15983;DHT22;14442;50.196;8.096;2023-04-09T13:56:19;22.60;38.50
15983;DHT22;14442;50.196;8.096;2023-04-09T13:58:45;22.40;37.90
15983;DHT22;14442;50.196;8.096;2023-04-09T14:01:12;22.30;38.30
15983;DHT22;14442;50.196;8.096;2023-04-09T14:03:40;22.40;38.00
15983;DHT22;14442;50.196;8.096;2023-04-09T14:06:07;22.20;38.00
15983;DHT22;14442;50.196;8.096;2023-04-09T14:08:34;22.00;37.70
15983;DHT22;14442;50.196;8.096;2023-04-09T14:11:01;22.10;38.20
15983;DHT22;14442;50.196;8.096;2023-04-09T14:13:29;22.00;38.20
15983;DHT22;14442;50.196;8.096;2023-04-09T14:15:56;22.10;37.90
15983;DHT22;14442;50.196;8.096;2023-04-09T14:18:23;22.10;38.00
15983;DHT22;14442;50.196;8.096;2023-04-09T14:20:50;22.10;38.10
15983;DHT22;14442;50.196;8.096;2023-04-09T14:23:16;22.00;38.10
15983;DHT22;14442;50.196;8.096;2023-04-09T14:25:43;22.00;38.10
15983;DHT22;14442;50.196;8.096;2023-04-09T14:28:10;22.20;37.90
15983;DHT22;14442;50.196;8.096;2023-04-09T14:30:38;22.10;37.80
15983;DHT22;14442;50.196;8.096;2023-04-09T14:33:04;22.20;38.10
15983;DHT22;14442;50.196;8.096;2023-04-09T14:35:31;22.20;37.80
15983;DHT22;14442;50.196;8.096;2023-04-09T14:37:58;22.20;38.60
15983;DHT22;14442;50.196;8.096;2023-04-09T14:40:26;22.20;37.80
15983;DHT22;14442;50.196;8.096;2023-04-09T14:42:52;21.90;37.60
15983;DHT22;14442;50.196;8.096;2023-04-09T14:45:19;22.10;37.90
15983;DHT22;14442;50.196;8.096;2023-04-09T14:47:47;22.20;37.90
15983;DHT22;14442;50.196;8.096;2023-04-09T14:50:14;22.10;37.80
15983;DHT22;14442;50.196;8.096;2023-04-09T14:52:41;22.40;38.10
15983;DHT22;14442;50.196;8.096;2023-04-09T14:55:08;22.20;37.30
15983;DHT22;14442;50.196;8.096;2023-04-09T14:57:37;21.90;37.10
15983;DHT22;14442;50.196;8.096;2023-04-09T15:00:05;21.70;37.80
15983;DHT22;14442;50.196;8.096;2023-04-09T15:02:32;22.00;38.00
15983;DHT22;14442;50.196;8.096;2023-04-09T15:05:02;22.00;37.40
15983;DHT22;14442;50.196;8.096;2023-04-09T15:07:29;21.90;37.40
15983;DHT22;14442;50.196;8.096;2023-04-09T15:09:56;22.00;37.90
15983;DHT22;14442;50.196;8.096;2023-04-09T15:12:24;22.30;37.90
15983;DHT22;14442;50.196;8.096;2023-04-09T15:14:51;22.30;36.80
15983;DHT22;14442;50.196;8.096;2023-04-09T15:17:18;22.10;37.10
15983;DHT22;14442;50.196;8.096;2023-04-09T15:19:45;22.20;37.50
15983;DHT22;14442;50.196;8.096;2023-04-09T15:22:13;22.40;37.20
15983;DHT22;14442;50.196;8.096;2023-04-09T15:24:40;22.30;37.00
15983;DHT22;14442;50.196;8.096;2023-04-09T15:27:07;22.20;36.90
15983;DHT22;14442;50.196;8.096;2023-04-09T15:29:33;22.10;37.20
15983;DHT22;14442;50.196;8.096;2023-04-09T15:32:00;22.30;37.30